createdAt,value
2018-07-12T00:01:53.013Z,20.30
2018-07-12T00:04:20.285Z,24.53
2018-07-12T00:06:47.575Z,20.50
2018-07-12T00:09:14.836Z,21.87
2018-07-12T00:11:42.358Z,20.73
2018-07-12T00:14:09.611Z,22.10
2018-07-12T00:16:36.896Z,19.83
2018-07-12T00:19:04.172Z,23.87
2018-07-12T00:21:31.437Z,22.30
2018-07-12T00:23:58.728Z,20.27
2018-07-12T00:26:25.992Z,21.10
2018-07-12T00:28:53.425Z,21.40
2018-07-12T00:31:20.697Z,19.77
2018-07-12T00:33:48.076Z,24.00
2018-07-12T00:36:15.289Z,20.87
2018-07-12T00:38:42.560Z,20.23
2018-07-12T00:41:09.861Z,21.20
2018-07-12T00:43:37.316Z,18.93
2018-07-12T00:46:04.841Z,22.70
2018-07-12T00:48:32.112Z,21.47
2018-07-12T00:50:59.407Z,21.00
2018-07-12T00:53:26.683Z,22.10
2018-07-12T00:55:53.943Z,24.53
2018-07-12T00:58:21.201Z,25.47
2018-07-12T01:00:48.543Z,27.63
2018-07-12T01:03:15.798Z,21.53
2018-07-12T01:05:43.073Z,29.03
2018-07-12T01:08:10.332Z,27.70
2018-07-12T01:10:38.097Z,19.70
2018-07-12T01:13:05.363Z,21.60
2018-07-12T01:15:32.629Z,25.03
2018-07-12T01:17:59.901Z,23.13
2018-07-12T01:20:27.176Z,23.97
2018-07-12T01:22:54.468Z,26.40
2018-07-12T01:25:21.737Z,22.30
2018-07-12T01:27:48.995Z,28.70
2018-07-12T01:30:16.287Z,23.77
2018-07-12T01:32:43.564Z,23.60
2018-07-12T01:35:10.844Z,24.60
2018-07-12T01:37:38.275Z,24.50
2018-07-12T01:40:05.540Z,23.93
2018-07-12T01:42:32.822Z,29.13
2018-07-12T01:45:00.109Z,25.37
2018-07-12T01:47:27.377Z,28.00
2018-07-12T01:49:54.920Z,27.43
2018-07-12T01:52:22.438Z,26.67
2018-07-12T01:54:49.701Z,22.00
2018-07-12T01:57:16.980Z,22.33
2018-07-12T01:59:44.239Z,26.67
2018-07-12T02:02:11.520Z,28.23
2018-07-12T02:04:38.788Z,22.43
2018-07-12T02:07:06.055Z,24.57
2018-07-12T02:09:33.348Z,21.57
2018-07-12T02:12:00.608Z,24.33
2018-07-12T02:14:27.901Z,20.43
2018-07-12T02:16:55.214Z,25.57
2018-07-12T02:19:22.651Z,26.07
2018-07-12T02:21:50.197Z,27.80
2018-07-12T02:24:17.458Z,20.77
2018-07-12T02:26:44.748Z,28.07
2018-07-12T02:29:12.024Z,29.33
2018-07-12T02:31:39.302Z,22.50
2018-07-12T02:34:06.578Z,19.90
2018-07-12T02:36:33.851Z,25.63
2018-07-12T02:39:01.377Z,29.50
2018-07-12T02:41:28.638Z,26.47
2018-07-12T02:43:55.900Z,20.70
2018-07-12T02:46:23.188Z,29.33
2018-07-12T02:48:50.445Z,22.80
2018-07-12T02:51:17.746Z,24.57
2018-07-12T02:53:45.023Z,23.03
2018-07-12T02:56:12.293Z,25.57
2018-07-12T02:58:39.572Z,21.80
2018-07-12T03:01:06.846Z,19.87
2018-07-12T03:03:34.147Z,24.87
2018-07-12T03:06:01.404Z,24.30
2018-07-12T03:08:28.674Z,24.37
2018-07-12T03:10:55.961Z,19.47
2018-07-12T03:13:23.229Z,19.37
2018-07-12T03:15:50.496Z,18.27
2018-07-12T03:18:17.772Z,22.73
2018-07-12T03:20:45.045Z,24.83
2018-07-12T03:23:12.325Z,18.10
2018-07-12T03:25:39.613Z,23.67
2018-07-12T03:28:06.880Z,30.30
2018-07-12T03:30:34.172Z,20.93
2018-07-12T03:33:01.420Z,19.97
2018-07-12T03:35:28.697Z,24.80
2018-07-12T03:37:55.961Z,24.30
2018-07-12T03:40:23.478Z,22.40
2018-07-12T03:42:50.733Z,20.53
2018-07-12T03:45:18.006Z,26.73
2018-07-12T03:47:45.510Z,28.70
2018-07-12T03:50:12.797Z,18.53
2018-07-12T03:52:40.053Z,24.93
2018-07-12T03:55:07.504Z,25.73
2018-07-12T03:57:34.781Z,21.67
2018-07-12T04:00:02.189Z,24.37
2018-07-12T04:02:29.480Z,18.67
2018-07-12T04:04:56.749Z,17.97
2018-07-12T04:07:24.031Z,19.10
2018-07-12T04:09:51.911Z,18.67
2018-07-12T04:12:19.204Z,18.57
2018-07-12T04:14:46.492Z,24.60
2018-07-12T04:17:21.316Z,21.30
2018-07-12T04:19:48.604Z,21.43
2018-07-12T04:22:15.880Z,18.90
2018-07-12T04:24:43.140Z,16.67
2018-07-12T04:27:10.417Z,14.87
2018-07-12T04:29:37.692Z,17.40
2018-07-12T04:32:04.965Z,20.97
2018-07-12T04:34:32.484Z,15.47
2018-07-12T04:36:59.713Z,19.83
2018-07-12T04:39:26.968Z,17.63
2018-07-12T04:41:55.024Z,18.77
2018-07-12T04:44:22.794Z,17.03
2018-07-12T04:46:50.053Z,24.20
2018-07-12T04:49:17.378Z,19.47
2018-07-12T04:51:44.640Z,13.43
2018-07-12T04:54:12.066Z,16.63
2018-07-12T04:56:39.420Z,18.00
2018-07-12T04:59:06.783Z,16.07
2018-07-12T05:01:34.072Z,19.70
2018-07-12T05:04:01.605Z,15.83
2018-07-12T05:06:28.882Z,16.20
2018-07-12T05:08:56.161Z,27.57
2018-07-12T05:11:24.083Z,14.20
2018-07-12T05:13:52.319Z,14.47
2018-07-12T05:16:19.647Z,13.80
2018-07-12T05:18:46.871Z,18.90
2018-07-12T05:21:14.391Z,17.23
2018-07-12T05:23:41.952Z,15.40
2018-07-12T05:26:09.216Z,15.80
2018-07-12T05:28:36.760Z,15.17
2018-07-12T05:31:04.026Z,14.13
2018-07-12T05:33:31.299Z,12.13
2018-07-12T05:35:59.962Z,13.43
2018-07-12T05:38:28.377Z,10.00
2018-07-12T05:40:57.024Z,25.63
2018-07-12T05:43:25.487Z,17.43
2018-07-12T05:45:53.860Z,11.23
2018-07-12T05:48:22.263Z,13.47
2018-07-12T05:50:50.819Z,10.23
2018-07-12T05:53:20.024Z,19.30
2018-07-12T05:55:48.422Z,14.70
2018-07-12T05:58:16.805Z,15.43
2018-07-12T06:00:45.268Z,14.40
2018-07-12T06:03:13.644Z,19.60
2018-07-12T06:05:42.049Z,15.80
2018-07-12T06:08:10.425Z,17.57
2018-07-12T06:10:38.833Z,17.77
2018-07-12T06:13:07.238Z,21.03
2018-07-12T06:15:35.725Z,15.23
2018-07-12T06:18:04.249Z,17.90
2018-07-12T06:20:32.816Z,16.20
2018-07-12T06:23:01.265Z,16.57
2018-07-12T06:25:29.637Z,19.80
2018-07-12T06:27:58.256Z,23.97
2018-07-12T06:30:26.668Z,17.07
2018-07-12T06:32:55.052Z,18.83
2018-07-12T06:35:23.464Z,24.93
2018-07-12T06:37:51.844Z,20.13
2018-07-12T06:40:20.321Z,18.50
2018-07-12T06:42:48.712Z,12.40
2018-07-12T06:45:17.116Z,18.83
2018-07-12T06:47:45.211Z,19.77
2018-07-12T06:50:13.588Z,23.60
2018-07-12T06:52:42.001Z,13.90
2018-07-12T06:55:10.410Z,16.57
2018-07-12T06:57:38.805Z,14.97
2018-07-12T07:00:07.208Z,14.37
2018-07-12T07:02:35.636Z,16.13
2018-07-12T07:05:04.401Z,21.90
2018-07-12T07:07:32.900Z,16.70
2018-07-12T07:10:01.265Z,16.93
2018-07-12T07:12:29.670Z,18.40
2018-07-12T07:14:58.109Z,15.20
2018-07-12T07:17:26.488Z,18.20
2018-07-12T07:19:55.117Z,13.63
2018-07-12T07:22:23.521Z,19.23
2018-07-12T07:24:51.944Z,19.03
2018-07-12T07:27:20.336Z,13.97
2018-07-12T07:29:48.924Z,17.37
2018-07-12T07:32:17.319Z,12.87
2018-07-12T07:34:45.709Z,12.43
2018-07-12T07:37:14.276Z,12.83
2018-07-12T07:39:42.662Z,11.73
2018-07-12T07:42:11.065Z,16.07
2018-07-12T07:44:39.612Z,13.73
2018-07-12T07:47:07.996Z,15.30
2018-07-12T07:49:36.372Z,11.40
2018-07-12T07:52:04.764Z,14.87
2018-07-12T07:54:33.202Z,13.43
2018-07-12T07:57:01.619Z,17.10
2018-07-12T07:59:29.993Z,15.30
2018-07-12T08:01:58.393Z,12.00
2018-07-12T08:04:27.052Z,11.47
2018-07-12T08:06:55.452Z,15.27
2018-07-12T08:09:24.022Z,13.73
2018-07-12T08:11:52.564Z,17.80
2018-07-12T08:14:20.953Z,18.43
2018-07-12T08:16:49.389Z,17.23
2018-07-12T08:19:17.780Z,20.30
2018-07-12T08:21:46.188Z,18.20
2018-07-12T08:24:14.596Z,16.00
2018-07-12T08:26:42.987Z,16.20
2018-07-12T08:29:11.365Z,17.67
2018-07-12T08:31:39.781Z,21.30
2018-07-12T08:34:08.166Z,16.80
2018-07-12T08:36:36.713Z,16.60
2018-07-12T08:39:05.935Z,16.87
2018-07-12T08:41:34.335Z,18.10
2018-07-12T08:44:02.760Z,14.27
2018-07-12T08:46:31.160Z,12.30
2018-07-12T08:48:59.953Z,17.13
2018-07-12T08:51:28.426Z,19.73
2018-07-12T08:53:56.925Z,11.77
2018-07-12T08:56:25.564Z,11.10
2018-07-12T08:58:53.948Z,13.97
2018-07-12T09:01:22.374Z,14.10
2018-07-12T09:03:51.070Z,17.43
2018-07-12T09:06:19.591Z,17.87
2018-07-12T09:08:48.005Z,17.30
2018-07-12T09:11:16.477Z,11.63
2018-07-12T09:13:44.972Z,11.87
2018-07-12T09:16:13.545Z,13.93
2018-07-12T09:18:42.128Z,17.27
2018-07-12T09:21:10.529Z,16.60
2018-07-12T09:23:39.400Z,8.67
2018-07-12T09:26:07.822Z,14.17
2018-07-12T09:28:36.206Z,16.20
2018-07-12T09:31:04.477Z,16.27
2018-07-12T09:33:32.879Z,14.37
2018-07-12T09:36:01.270Z,18.10
2018-07-12T09:38:42.592Z,13.83
2018-07-12T09:41:11.288Z,14.67
2018-07-12T09:43:40.525Z,11.00
2018-07-12T09:46:08.986Z,13.97
2018-07-12T09:48:39.170Z,12.73
2018-07-12T09:51:07.933Z,13.60
2018-07-12T09:53:36.340Z,14.50
2018-07-12T09:56:04.961Z,14.57
2018-07-12T09:58:33.240Z,14.17
2018-07-12T10:01:06.834Z,10.67
2018-07-12T10:03:40.573Z,14.43
2018-07-12T10:06:14.337Z,11.43
2018-07-12T10:08:47.804Z,14.80
2018-07-12T10:11:21.989Z,12.07
2018-07-12T10:13:58.201Z,11.90
2018-07-12T10:16:31.884Z,11.73
2018-07-12T10:19:00.268Z,10.90
2018-07-12T10:21:28.685Z,15.77
2018-07-12T10:23:57.477Z,10.53
2018-07-12T10:26:25.969Z,14.93
2018-07-12T10:28:54.377Z,13.23
2018-07-12T10:31:22.815Z,12.47
2018-07-12T10:33:51.212Z,15.33
2018-07-12T10:36:19.640Z,11.10
2018-07-12T10:38:48.046Z,13.00
2018-07-12T10:41:16.518Z,11.03
2018-07-12T10:43:44.997Z,11.70
2018-07-12T10:46:13.108Z,10.20
2018-07-12T10:48:41.517Z,8.07
2018-07-12T10:51:09.912Z,7.90
2018-07-12T10:53:38.320Z,12.23
2018-07-12T10:56:06.789Z,13.53
2018-07-12T10:58:35.209Z,11.20
2018-07-12T11:01:03.660Z,12.80
2018-07-12T11:03:32.081Z,11.13
2018-07-12T11:06:00.476Z,14.00
2018-07-12T11:08:28.886Z,6.87
2018-07-12T11:10:57.357Z,15.57
2018-07-12T11:13:31.150Z,12.63
2018-07-12T11:15:59.541Z,13.93
2018-07-12T11:18:27.936Z,8.80
2018-07-12T11:20:56.369Z,9.03
2018-07-12T11:23:24.872Z,10.93
2018-07-12T11:25:53.265Z,14.47
2018-07-12T11:28:21.722Z,8.67
2018-07-12T11:30:50.149Z,8.70
2018-07-12T11:33:41.187Z,10.40
2018-07-12T11:36:09.935Z,14.03
2018-07-12T11:38:40.511Z,9.10
2018-07-12T11:41:09.312Z,10.20
2018-07-12T11:43:37.962Z,11.37
2018-07-12T11:46:07.896Z,8.77
2018-07-12T11:48:37.332Z,10.20
2018-07-12T11:51:05.949Z,9.30
2018-07-12T11:53:34.764Z,10.60
2018-07-12T11:56:03.170Z,12.40
2018-07-12T11:58:31.569Z,10.93
2018-07-12T12:01:00.713Z,10.57
2018-07-12T12:03:29.380Z,9.50
2018-07-12T12:05:57.816Z,9.77
2018-07-12T12:08:26.748Z,8.60
2018-07-12T12:10:55.198Z,10.23
2018-07-12T12:13:23.661Z,5.93
2018-07-12T12:15:52.085Z,9.03
2018-07-12T12:18:20.485Z,7.90
2018-07-12T12:20:48.896Z,7.90
2018-07-12T12:23:17.297Z,8.73
2018-07-12T12:25:45.808Z,11.50
2018-07-12T12:28:14.477Z,7.17
2018-07-12T12:30:42.984Z,9.97
2018-07-12T12:33:11.413Z,9.40
2018-07-12T12:35:40.064Z,9.10
2018-07-12T12:38:08.493Z,8.20
2018-07-12T12:40:36.909Z,12.63
2018-07-12T12:43:05.504Z,8.40
2018-07-12T12:45:33.908Z,8.33
2018-07-12T12:48:02.295Z,5.73
2018-07-12T12:50:31.056Z,9.70
2018-07-12T12:52:59.457Z,7.30
2018-07-12T12:55:27.953Z,8.07
2018-07-12T12:57:56.397Z,6.20
2018-07-12T13:00:24.809Z,5.07
2018-07-12T13:02:53.205Z,6.70
2018-07-12T13:05:21.807Z,10.20
2018-07-12T13:07:50.217Z,7.23
2018-07-12T13:10:18.629Z,6.93
2018-07-12T13:12:47.029Z,6.83
2018-07-12T13:15:15.423Z,6.63
2018-07-12T13:17:43.866Z,7.10
2018-07-12T13:20:12.280Z,6.70
2018-07-12T13:22:40.741Z,6.30
2018-07-12T13:25:09.182Z,7.90
2018-07-12T13:27:37.322Z,6.60
2018-07-12T13:30:06.125Z,6.43
2018-07-12T13:32:34.530Z,6.17
2018-07-12T13:35:02.941Z,6.03
2018-07-12T13:37:31.377Z,8.07
2018-07-12T13:39:59.788Z,7.80
2018-07-12T13:42:28.206Z,7.87
2018-07-12T13:44:56.619Z,4.93
2018-07-12T13:47:25.033Z,6.53
2018-07-12T13:49:53.484Z,5.10
2018-07-12T13:52:21.893Z,5.83
2018-07-12T13:54:50.296Z,10.37
2018-07-12T13:57:18.732Z,4.60
2018-07-12T13:59:47.163Z,5.30
2018-07-12T14:02:15.608Z,8.47
2018-07-12T14:04:44.034Z,5.50
2018-07-12T14:07:12.504Z,9.40
2018-07-12T14:09:41.211Z,5.73
2018-07-12T14:12:09.616Z,8.13
2018-07-12T14:14:38.057Z,6.93
2018-07-12T14:17:06.485Z,11.80
2018-07-12T14:19:34.897Z,5.73
2018-07-12T14:22:03.340Z,9.13
2018-07-12T14:24:31.772Z,4.50
2018-07-12T14:27:00.202Z,6.30
2018-07-12T14:29:28.640Z,4.67
2018-07-12T14:31:57.045Z,6.10
2018-07-12T14:34:25.484Z,5.10
2018-07-12T14:36:53.902Z,8.43
2018-07-12T14:39:22.428Z,6.13
2018-07-12T14:41:50.880Z,4.23
2018-07-12T14:44:19.285Z,5.40
2018-07-12T14:46:47.716Z,6.67
2018-07-12T14:49:16.086Z,3.60
2018-07-12T14:51:44.204Z,5.23
2018-07-12T14:54:12.677Z,4.07
2018-07-12T14:56:41.072Z,6.07
2018-07-12T14:59:09.529Z,5.23
2018-07-12T15:01:37.958Z,4.90
2018-07-12T15:04:06.665Z,5.40
2018-07-12T15:06:35.085Z,4.20
2018-07-12T15:09:04.228Z,8.90
2018-07-12T15:11:32.624Z,5.50
2018-07-12T15:14:01.046Z,5.10
2018-07-12T15:16:29.625Z,5.20
2018-07-12T15:18:58.033Z,6.40
2018-07-12T15:21:26.457Z,4.80
2018-07-12T15:23:55.101Z,7.50
2018-07-12T15:26:23.199Z,7.00
2018-07-12T15:28:51.670Z,5.73
2018-07-12T15:31:20.220Z,4.47
2018-07-12T15:33:48.689Z,7.43
2018-07-12T15:36:17.396Z,4.93
2018-07-12T15:38:45.841Z,7.83
2018-07-12T15:41:14.756Z,5.50
2018-07-12T15:43:43.232Z,5.50
2018-07-12T15:46:11.653Z,5.30
2018-07-12T15:48:40.110Z,4.13
2018-07-12T15:51:08.603Z,7.63
2018-07-12T15:53:37.730Z,4.40
2018-07-12T15:56:06.524Z,7.37
2018-07-12T15:58:34.953Z,4.80
2018-07-12T16:01:03.385Z,3.80
2018-07-12T16:03:31.781Z,3.80
2018-07-12T16:06:00.305Z,5.20
2018-07-12T16:08:28.738Z,6.23
2018-07-12T16:10:57.136Z,5.70
2018-07-12T16:13:25.945Z,4.40
2018-07-12T16:15:54.076Z,10.23
2018-07-12T16:18:24.424Z,7.10
2018-07-12T16:21:00.384Z,4.63
2018-07-12T16:23:28.777Z,7.67
2018-07-12T16:25:57.249Z,5.33
2018-07-12T16:28:25.779Z,7.00
2018-07-12T16:30:54.204Z,6.07
2018-07-12T16:33:22.630Z,6.27
2018-07-12T16:35:51.044Z,10.70
2018-07-12T16:38:19.621Z,7.00
2018-07-12T16:40:48.067Z,5.57
2018-07-12T16:43:16.504Z,5.60
2018-07-12T16:45:44.965Z,6.53
2018-07-12T16:48:13.441Z,5.90
2018-07-12T16:50:41.896Z,10.27
2018-07-12T16:53:10.368Z,5.10
2018-07-12T16:55:38.802Z,6.33
2018-07-12T16:58:07.236Z,5.87
2018-07-12T17:00:35.630Z,10.03
2018-07-12T17:03:04.085Z,8.77
2018-07-12T17:05:32.703Z,3.70
2018-07-12T17:08:01.116Z,5.67
2018-07-12T17:10:29.559Z,5.17
2018-07-12T17:12:58.010Z,6.40
2018-07-12T17:15:26.458Z,6.53
2018-07-12T17:17:55.441Z,8.67
2018-07-12T17:20:23.864Z,6.80
2018-07-12T17:22:52.353Z,5.23
2018-07-12T17:25:21.056Z,7.70
2018-07-12T17:27:49.449Z,10.50
2018-07-12T17:30:17.887Z,7.90
2018-07-12T17:32:46.418Z,5.73
2018-07-12T17:35:14.803Z,5.03
2018-07-12T17:37:43.238Z,9.07
2018-07-12T17:40:11.752Z,5.33
2018-07-12T17:42:40.177Z,5.07
2018-07-12T17:45:08.634Z,7.47
2018-07-12T17:47:37.107Z,4.47
2018-07-12T17:50:05.540Z,6.70
2018-07-12T17:52:33.953Z,5.27
2018-07-12T17:55:02.089Z,6.33
2018-07-12T17:57:30.685Z,9.30
2018-07-12T17:59:59.120Z,6.00
2018-07-12T18:02:27.741Z,4.83
2018-07-12T18:04:56.905Z,5.17
2018-07-12T18:07:26.205Z,4.67
2018-07-12T18:09:55.155Z,4.40
2018-07-12T18:12:23.643Z,6.50
2018-07-12T18:14:52.032Z,9.33
2018-07-12T18:17:20.692Z,4.07
2018-07-12T18:19:49.142Z,7.13
2018-07-12T18:22:17.851Z,9.63
2018-07-12T18:24:46.217Z,4.10
2018-07-12T18:27:14.693Z,6.47
2018-07-12T18:29:43.196Z,5.10
2018-07-12T18:32:11.742Z,10.10
2018-07-12T18:34:40.249Z,4.30
2018-07-12T18:37:08.808Z,5.40
2018-07-12T18:39:37.245Z,12.30
2018-07-12T18:42:05.785Z,7.33
2018-07-12T18:44:34.495Z,4.00
2018-07-12T18:47:02.943Z,5.20
2018-07-12T18:49:31.375Z,7.20
2018-07-12T18:51:59.772Z,6.93
2018-07-12T18:54:28.322Z,9.30
2018-07-12T18:56:56.810Z,7.50
2018-07-12T18:59:25.664Z,8.63
2018-07-12T19:01:54.366Z,9.13
2018-07-12T19:04:22.724Z,8.07
2018-07-12T19:06:51.256Z,11.60
2018-07-12T19:09:19.721Z,6.93
2018-07-12T19:11:48.778Z,11.37
2018-07-12T19:14:17.221Z,8.10
2018-07-12T19:16:45.826Z,10.60
2018-07-12T19:19:14.245Z,9.07
2018-07-12T19:21:42.717Z,7.00
2018-07-12T19:24:11.614Z,11.27
2018-07-12T19:26:40.148Z,8.07
2018-07-12T19:29:09.081Z,6.30
2018-07-12T19:31:37.264Z,10.70
2018-07-12T19:34:05.673Z,11.87
2018-07-12T19:36:34.463Z,12.60
2018-07-12T19:39:03.367Z,8.77
2018-07-12T19:41:31.920Z,21.67
2018-07-12T19:44:00.380Z,12.83
2018-07-12T19:46:28.798Z,8.80
2018-07-12T19:48:57.519Z,11.73
2018-07-12T19:51:26.279Z,10.20
2018-07-12T19:53:54.820Z,12.30
2018-07-12T19:56:23.535Z,13.43
2018-07-12T19:58:52.345Z,12.50
2018-07-12T20:01:20.744Z,11.23
2018-07-12T20:03:49.187Z,11.47
2018-07-12T20:06:17.784Z,11.53
2018-07-12T20:08:46.226Z,10.57
2018-07-12T20:11:14.884Z,18.90
2018-07-12T20:13:43.353Z,12.40
2018-07-12T20:16:11.816Z,15.20
2018-07-12T20:18:40.452Z,14.83
2018-07-12T20:21:08.872Z,10.80
2018-07-12T20:23:37.676Z,13.47
2018-07-12T20:26:06.528Z,17.93
2018-07-12T20:28:35.128Z,16.80
2018-07-12T20:31:03.664Z,13.20
2018-07-12T20:33:32.031Z,17.60
2018-07-12T20:36:00.725Z,23.53
2018-07-12T20:38:29.171Z,34.90
2018-07-12T20:40:57.601Z,24.40
2018-07-12T20:43:26.242Z,16.57
2018-07-12T20:45:54.908Z,14.50
2018-07-12T20:48:23.368Z,8.93
2018-07-12T20:50:52.092Z,11.57
2018-07-12T20:53:20.672Z,12.47
2018-07-12T20:55:49.141Z,15.20
2018-07-12T20:58:17.576Z,10.80
2018-07-12T21:00:46.122Z,12.00
2018-07-12T21:03:14.562Z,11.23
2018-07-12T21:05:43.189Z,13.33
2018-07-12T21:08:11.641Z,15.50
2018-07-12T21:10:40.311Z,13.13
2018-07-12T21:13:09.126Z,11.03
2018-07-12T21:15:37.591Z,10.63
2018-07-12T21:18:09.526Z,9.77
2018-07-12T21:20:38.241Z,14.47
2018-07-12T21:23:06.702Z,11.13
2018-07-12T21:25:35.289Z,7.63
2018-07-12T21:28:03.717Z,9.47
2018-07-12T21:30:32.158Z,7.87
2018-07-12T21:33:00.567Z,14.30
2018-07-12T21:35:29.245Z,7.60
2018-07-12T21:37:57.874Z,12.33
2018-07-12T21:40:26.596Z,6.90
2018-07-12T21:42:55.246Z,7.17
2018-07-12T21:45:23.934Z,9.03
2018-07-12T21:47:52.683Z,8.40
2018-07-12T21:50:21.256Z,6.67
2018-07-12T21:52:49.929Z,10.33
2018-07-12T21:55:18.543Z,4.90
2018-07-12T21:57:46.944Z,9.77
2018-07-12T22:00:15.370Z,7.43
2018-07-12T22:02:43.784Z,5.77
2018-07-12T22:05:12.409Z,7.27
2018-07-12T22:08:03.948Z,5.77
2018-07-12T22:10:32.410Z,11.50
2018-07-12T22:13:00.852Z,7.30
2018-07-12T22:15:29.348Z,7.33
2018-07-12T22:17:58.281Z,8.70
2018-07-12T22:20:26.680Z,8.33
2018-07-12T22:22:55.188Z,8.67
2018-07-12T22:25:23.849Z,6.23
2018-07-12T22:27:52.238Z,8.50
2018-07-12T22:30:20.829Z,11.07
2018-07-12T22:32:49.337Z,8.83
2018-07-12T22:35:17.732Z,8.50
2018-07-12T22:37:46.418Z,7.20
2018-07-12T22:40:14.928Z,8.73
2018-07-12T22:42:43.494Z,8.40
2018-07-12T22:45:11.903Z,7.33
2018-07-12T22:47:40.419Z,6.07
2018-07-12T22:50:08.896Z,5.80
2018-07-12T22:52:37.316Z,9.60
2018-07-12T22:55:05.748Z,6.17
2018-07-12T22:57:34.333Z,7.43
2018-07-12T23:00:02.953Z,9.23
2018-07-12T23:02:31.544Z,7.03
2018-07-12T23:04:59.954Z,9.17
2018-07-12T23:07:28.339Z,10.60
2018-07-12T23:09:56.846Z,7.97
2018-07-12T23:12:25.251Z,6.47
2018-07-12T23:14:53.767Z,9.63
2018-07-12T23:17:22.257Z,5.30
2018-07-12T23:19:50.936Z,8.27
2018-07-12T23:22:19.491Z,6.20
2018-07-12T23:24:48.168Z,8.33
2018-07-12T23:27:16.870Z,7.70
2018-07-12T23:29:45.758Z,7.97
2018-07-12T23:32:14.266Z,8.87
2018-07-12T23:34:43.028Z,7.70
2018-07-12T23:37:11.650Z,10.50
2018-07-12T23:39:40.104Z,11.27
2018-07-12T23:42:08.554Z,6.53
2018-07-12T23:44:37.104Z,11.90
2018-07-12T23:47:05.870Z,11.77
2018-07-12T23:49:34.343Z,7.90
2018-07-12T23:52:02.864Z,8.03
2018-07-12T23:54:31.708Z,6.43
2018-07-12T23:57:00.508Z,7.23
2018-07-12T23:59:28.932Z,10.33
